Time;durP1;ratioP1;P1;durP2;ratioP2;P2;SDS_P1;SDS_P2;PMS_P1;PMS_P2;Temp;Humidity;BMP_temperature;BMP_pressure;BME280_temperature;BME280_humidity;BME280_pressure;Samples;Min_cycle;Max_cycle;Signal;HPM_P1;HPM_P2
2022/10/03 00:00:19;;;;;;;7.63;2.10;;;;;;;9.17;82.79;102473.19;5011959;28;20531;-75
2022/10/03 00:02:54;;;;;;;11.18;3.33;;;;;;;9.19;83.78;102468.88;5012767;28;20030;-75
2022/10/03 00:05:58;;;;;;;7.53;3.63;;;;;;;9.21;83.65;102468.06;5011899;28;20113;-75
2022/10/03 00:08:56;;;;;;;10.65;3.35;;;;;;;9.22;83.93;102474.97;5006989;28;20072;-76
2022/10/03 00:11:36;;;;;;;8.45;4.03;;;;;;;9.23;84.23;102478.44;5012283;28;20032;-76
2022/10/03 00:14:22;;;;;;;7.43;4.32;;;;;;;9.23;84.11;102474.09;5012204;28;20087;-76
2022/10/03 00:17:02;;;;;;;9.18;4.20;;;;;;;9.23;84.19;102478.44;5006573;28;20022;-76
2022/10/03 00:19:27;;;;;;;6.22;2.95;;;;;;;9.21;83.76;102470.66;5011365;28;20029;-76
2022/10/03 00:22:08;;;;;;;6.38;2.50;;;;;;;9.20;83.61;102479.31;5011860;28;20032;-75
2022/10/03 00:24:52;;;;;;;8.10;2.22;;;;;;;9.16;83.06;102469.75;4998838;28;20045;-75
2022/10/03 00:27:40;;;;;;;6.95;2.30;;;;;;;9.14;83.05;102471.47;5011480;28;20034;-75
2022/10/03 00:30:17;;;;;;;7.32;2.25;;;;;;;9.10;83.29;102483.56;5007907;28;20034;-75
2022/10/03 00:33:08;;;;;;;7.03;2.50;;;;;;;9.08;83.68;102495.66;5011632;28;20053;-76
2022/10/03 00:35:55;;;;;;;8.70;2.13;;;;;;;9.07;83.50;102491.31;5016157;28;20034;-75
2022/10/03 00:38:36;;;;;;;5.53;2.47;;;;;;;9.05;83.34;102497.38;5016489;28;20097;-76
2022/10/03 00:41:08;;;;;;;5.03;2.10;;;;;;;9.01;83.07;102485.22;5016258;28;20076;-75
2022/10/03 00:43:56;;;;;;;6.65;2.00;;;;;;;8.98;82.79;102495.56;4997505;28;20030;-75
2022/10/03 00:46:46;;;;;;;5.35;1.95;;;;;;;8.94;83.39;102495.53;5012785;28;20116;-75
2022/10/03 00:50:02;;;;;;;8.07;2.03;;;;;;;8.94;83.59;102499.88;5015283;28;20025;-76
2022/10/03 00:52:48;;;;;;;4.85;1.75;;;;;;;8.93;82.91;102499.00;4980153;28;20473;-76
2022/10/03 00:55:16;;;;;;;5.35;2.00;;;;;;;8.91;82.64;102500.72;5012727;28;20030;-76
2022/10/03 00:58:03;;;;;;;3.97;1.55;;;;;;;8.89;81.83;102506.75;5012348;28;20034;-75
2022/10/03 01:00:31;;;;;;;2.85;1.40;;;;;;;8.82;81.86;102511.03;5013735;28;20033;-75
2022/10/03 01:02:57;;;;;;;4.45;1.50;;;;;;;8.77;81.94;102507.50;5011230;28;20445;-76
2022/10/03 01:05:45;;;;;;;4.63;1.40;;;;;;;8.72;82.43;102504.00;4993596;28;20038;-76
2022/10/03 01:08:46;;;;;;;3.53;1.42;;;;;;;8.70;82.85;102516.13;5006425;28;20022;-75
2022/10/03 01:11:11;;;;;;;4.28;1.77;;;;;;;8.71;83.16;102515.25;4960740;28;20055;-75
2022/10/03 01:14:01;;;;;;;5.45;2.08;;;;;;;8.72;83.57;102514.38;5004274;28;20443;-76
2022/10/03 01:16:53;;;;;;;4.07;1.95;;;;;;;8.71;83.57;102517.84;5011340;28;20029;-75
2022/10/03 01:19:57;;;;;;;5.40;1.85;;;;;;;8.67;82.47;102524.72;5008819;28;20225;-75
2022/10/03 01:22:41;;;;;;;5.68;1.73;;;;;;;8.63;82.57;102535.91;5014511;28;20037;-76
2022/10/03 01:25:44;;;;;;;4.82;1.90;;;;;;;8.63;83.66;102530.72;5006087;28;20378;-76
2022/10/03 01:31:27;;;;;;;4.00;2.38;;;;;;;8.63;84.51;102534.22;5009226;28;20101;-76
2022/10/03 01:34:02;;;;;;;5.32;2.25;;;;;;;8.64;84.66;102533.34;5004316;28;20087;-76
2022/10/03 01:36:38;;;;;;;4.45;2.20;;;;;;;8.62;84.49;102535.06;5008317;28;20033;-76
2022/10/03 01:39:26;;;;;;;6.30;2.28;;;;;;;8.63;84.35;102541.09;5006256;28;20068;-76
2022/10/03 01:41:58;;;;;;;6.18;2.75;;;;;;;8.61;84.25;102533.31;5011411;28;20034;-76
2022/10/03 01:44:39;;;;;;;5.65;2.33;;;;;;;8.61;84.79;102535.91;5014120;28;20182;-75
2022/10/03 01:47:48;;;;;;;6.50;2.35;;;;;;;8.62;84.65;102537.66;5011731;28;20026;-75
2022/10/03 01:50:37;;;;;;;8.18;2.40;;;;;;;8.62;85.00;102532.47;5010795;28;20469;-75
2022/10/03 01:53:22;;;;;;;6.68;2.55;;;;;;;8.61;85.05;102533.31;5013936;28;20485;-74
2022/10/03 01:55:58;;;;;;;6.22;2.35;;;;;;;8.60;85.21;102531.59;5012955;28;20034;-75
2022/10/03 01:58:42;;;;;;;4.43;1.98;;;;;;;8.59;85.33;102536.78;5014626;28;20026;-76
2022/10/03 02:01:36;;;;;;;5.50;2.20;;;;;;;8.59;84.85;102534.19;5013242;28;20065;-75
2022/10/03 02:04:05;;;;;;;7.70;2.38;;;;;;;8.59;84.94;102535.03;5010564;28;20381;-76
2022/10/03 02:06:52;;;;;;;5.80;2.35;;;;;;;8.59;84.89;102544.56;4996990;28;20041;-76
2022/10/03 02:09:32;;;;;;;5.40;2.42;;;;;;;8.57;85.14;102536.72;4997455;28;20366;-76
2022/10/03 02:12:08;;;;;;;4.70;2.25;;;;;;;8.55;84.69;102541.03;5000990;28;20037;-75
2022/10/03 02:14:46;;;;;;;4.57;2.15;;;;;;;8.54;84.91;102536.69;5014217;28;20436;-75
2022/10/03 02:17:22;;;;;;;6.90;2.35;;;;;;;8.54;85.09;102541.03;5013420;28;20034;-75
2022/10/03 02:19:59;;;;;;;7.10;2.90;;;;;;;8.53;85.03;102545.38;5012817;28;20038;-75
2022/10/03 02:22:44;;;;;;;6.85;2.20;;;;;;;8.49;83.79;102543.59;4995058;28;20060;-76
2022/10/03 02:25:34;;;;;;;3.88;1.95;;;;;;;8.45;83.88;102553.03;5012501;28;20030;-75
2022/10/03 02:28:29;;;;;;;4.05;2.03;;;;;;;8.42;84.08;102552.09;5009588;28;20057;-75
2022/10/03 02:31:25;;;;;;;6.80;2.05;;;;;;;8.40;84.05;102553.81;5012540;28;20025;-75
2022/10/03 02:34:14;;;;;;;6.65;2.33;;;;;;;8.40;85.20;102551.22;5009862;28;20393;-76
2022/10/03 02:36:58;;;;;;;7.63;2.53;;;;;;;8.41;85.39;102550.38;5012539;28;20037;-76
2022/10/03 02:39:42;;;;;;;5.32;2.10;;;;;;;8.39;84.91;102547.78;5011597;28;20065;-76
2022/10/03 02:42:49;;;;;;;7.55;2.40;;;;;;;8.36;83.52;102552.91;5012506;28;20091;-76
2022/10/03 02:45:33;;;;;;;4.88;2.03;;;;;;;8.30;83.55;102542.47;5011396;28;20053;-76
2022/10/03 02:48:35;;;;;;;4.32;1.95;;;;;;;8.27;83.86;102555.41;5012295;28;20462;-75
2022/10/03 02:51:32;;;;;;;6.50;2.13;;;;;;;8.26;85.22;102545.91;5010714;28;20034;-75
2022/10/03 02:54:10;;;;;;;6.55;2.40;;;;;;;8.28;85.40;102542.47;5012040;28;20029;-75
2022/10/03 02:56:45;;;;;;;5.43;2.10;;;;;;;8.26;84.74;102549.34;5010950;28;20018;-75
2022/10/03 02:59:29;;;;;;;4.65;1.77;;;;;;;8.23;83.74;102551.91;4994424;28;20030;-75
2022/10/03 03:02:11;;;;;;;3.78;1.90;;;;;;;8.15;83.57;102546.63;5011420;28;20400;-75
2022/10/03 03:04:57;;;;;;;4.60;1.60;;;;;;;8.10;83.12;102543.13;5010807;28;20461;-75
2022/10/03 03:07:38;;;;;;;5.43;1.85;;;;;;;8.08;84.06;102547.41;5013126;28;20034;-75
2022/10/03 03:10:30;;;;;;;4.38;1.90;;;;;;;8.09;84.40;102538.78;5002452;28;20547;-75
2022/10/03 03:13:17;;;;;;;4.40;1.75;;;;;;;8.07;84.04;102548.28;5009934;28;20030;-75
2022/10/03 03:16:05;;;;;;;2.63;1.67;;;;;;;8.02;83.31;102549.91;5006972;28;20029;-75
2022/10/03 03:18:45;;;;;;;3.50;1.85;;;;;;;8.01;84.48;102550.78;5013611;28;20477;-75
2022/10/03 03:21:43;;;;;;;4.18;1.77;;;;;;;7.99;84.13;102548.16;4989969;28;20481;-76
2022/10/03 03:24:23;;;;;;;7.15;2.30;;;;;;;7.98;85.13;102550.72;4981114;28;20049;-76
2022/10/03 03:27:04;;;;;;;4.00;2.10;;;;;;;7.99;84.98;102553.34;5011987;28;20030;-76
2022/10/03 03:29:47;;;;;;;10.80;3.20;;;;;;;8.00;85.12;102565.47;5003699;28;20029;-75
2022/10/03 03:32:30;;;;;;;6.55;3.30;;;;;;;8.00;85.66;102565.47;5014158;28;20026;-76
2022/10/03 03:35:26;;;;;;;6.00;2.47;;;;;;;8.00;85.19;102567.16;5016164;28;20025;-75
2022/10/03 03:38:00;;;;;;;5.20;2.20;;;;;;;7.98;84.48;102563.69;5012244;28;20065;-75
2022/10/03 03:40:54;;;;;;;3.40;1.90;;;;;;;7.95;84.00;102564.53;5008964;28;20101;-75
2022/10/03 03:43:40;;;;;;;4.13;1.90;;;;;;;7.90;83.73;102558.41;5013033;28;20021;-75
2022/10/03 03:46:26;;;;;;;3.05;1.50;;;;;;;7.85;83.71;102557.50;5011005;28;20073;-75
2022/10/03 03:49:22;;;;;;;2.65;1.50;;;;;;;7.84;83.69;102558.34;5011245;28;20015;-75
2022/10/03 03:52:21;;;;;;;3.65;1.60;;;;;;;7.83;83.74;102554.88;5011686;28;20030;-75
2022/10/03 03:55:05;;;;;;;8.60;1.58;;;;;;;7.80;83.37;102561.72;5011812;28;20013;-75
2022/10/03 03:57:40;;;;;;;13.80;2.05;;;;;;;7.75;83.33;102567.72;5010247;28;20038;-75
2022/10/03 04:00:19;;;;;;;4.00;1.65;;;;;;;7.71;83.37;102558.16;5012588;28;20128;-75
2022/10/03 04:03:12;;;;;;;3.53;1.50;;;;;;;7.67;83.41;102556.41;4995291;28;20030;-75
2022/10/03 04:05:54;;;;;;;5.75;1.80;;;;;;;7.67;83.49;102564.16;5012273;28;20026;-75
2022/10/03 04:08:41;;;;;;;3.03;1.50;;;;;;;7.65;83.45;102565.84;4997503;28;20022;-76
2022/10/03 04:11:24;;;;;;;4.18;1.70;;;;;;;7.63;83.35;102567.56;5007424;28;20029;-76
2022/10/03 04:14:20;;;;;;;4.28;1.65;;;;;;;7.63;83.94;102557.19;5012621;28;20060;-75
2022/10/03 04:19:57;;;;;;;4.35;1.75;;;;;;;7.63;84.84;102567.56;5011455;28;20089;-75
2022/10/03 04:22:35;;;;;;;4.32;2.15;;;;;;;7.64;85.38;102569.28;5006469;28;20034;-75
2022/10/03 04:25:31;;;;;;;5.20;2.72;;;;;;;7.67;86.09;102576.22;5004632;28;20038;-75
2022/10/03 04:28:06;;;;;;;6.90;2.50;;;;;;;7.67;86.16;102577.13;5010237;28;20072;-75
2022/10/03 04:30:39;;;;;;;5.20;2.45;;;;;;;7.68;85.98;102568.50;5008331;28;20029;-75
2022/10/03 04:33:27;;;;;;;5.03;2.35;;;;;;;7.69;85.78;102567.63;5009604;28;20161;-75
2022/10/03 04:36:17;;;;;;;4.70;2.30;;;;;;;7.72;85.95;102579.78;4983089;28;20041;-75
2022/10/03 04:38:58;;;;;;;5.18;2.30;;;;;;;7.71;86.13;102573.69;5010382;28;20041;-75
2022/10/03 04:41:44;;;;;;;8.10;2.50;;;;;;;7.73;86.25;102577.19;5010779;28;20160;-75
2022/10/03 04:44:42;;;;;;;6.60;2.33;;;;;;;7.74;86.38;102580.66;5009294;28;20041;-75
2022/10/03 04:47:16;;;;;;;5.40;2.38;;;;;;;7.73;86.37;102584.09;5010032;28;20555;-76
2022/10/03 04:49:52;;;;;;;8.15;2.55;;;;;;;7.71;86.33;102571.09;5001659;28;20044;-75
2022/10/03 04:52:47;;;;;;;4.75;2.65;;;;;;;7.73;86.13;102574.59;5011309;28;20088;-75
2022/10/03 04:55:27;;;;;;;5.95;2.65;;;;;;;7.73;86.63;102577.19;4991546;28;20034;-75
2022/10/03 04:57:59;;;;;;;6.05;2.63;;;;;;;7.73;86.82;102582.38;5010800;28;20079;-75
2022/10/03 05:00:46;;;;;;;10.07;2.90;;;;;;;7.73;86.77;102574.59;5016505;28;20508;-75
2022/10/03 05:03:20;;;;;;;4.30;2.50;;;;;;;7.73;86.68;102587.53;5007208;28;20034;-75
2022/10/03 05:05:58;;;;;;;5.70;2.90;;;;;;;7.73;86.43;102576.31;5006024;28;20036;-75
2022/10/03 05:08:37;;;;;;;5.93;2.53;;;;;;;7.73;86.04;102582.38;5011174;28;20522;-76
2022/10/03 05:11:17;;;;;;;7.15;2.70;;;;;;;7.71;85.25;102581.47;5006107;28;20052;-76
2022/10/03 05:14:14;;;;;;;5.90;2.58;;;;;;;7.70;86.28;102587.50;5005020;28;20084;-75
2022/10/03 05:16:54;;;;;;;6.13;2.70;;;;;;;7.70;86.56;102581.47;5009094;28;20504;-76
2022/10/03 05:19:44;;;;;;;8.45;2.90;;;;;;;7.70;86.41;102592.69;5009391;28;20515;-75
2022/10/03 05:22:45;;;;;;;5.22;2.63;;;;;;;7.70;86.09;102592.69;5015394;28;20028;-76
2022/10/03 05:25:21;;;;;;;4.75;2.60;;;;;;;7.68;85.29;102594.41;5014162;28;20252;-75
2022/10/03 05:28:00;;;;;;;3.63;2.20;;;;;;;7.66;84.87;102593.50;5009562;28;20022;-75
2022/10/03 05:30:57;;;;;;;6.53;2.67;;;;;;;7.62;84.35;102599.47;5014304;28;20032;-75
2022/10/03 05:33:45;;;;;;;7.00;2.83;;;;;;;7.56;84.33;102595.09;5018926;28;20443;-75
2022/10/03 05:36:20;;;;;;;5.85;2.13;;;;;;;7.52;84.08;102603.66;5012491;28;20040;-75
2022/10/03 05:39:17;;;;;;;7.65;2.50;;;;;;;7.47;83.24;102610.47;5014913;28;20034;-75
2022/10/03 05:42:33;;;;;;;4.30;2.00;;;;;;;7.37;83.22;102606.00;5004461;28;20045;-75
2022/10/03 05:44:58;;;;;;;10.32;1.75;;;;;;;7.27;83.55;102615.31;4926908;28;20048;-75
2022/10/03 05:47:47;;;;;;;3.35;1.60;;;;;;;7.24;84.18;102610.97;5018864;28;20037;-76
2022/10/03 05:51:01;;;;;;;2.50;1.42;;;;;;;7.23;84.25;102627.34;5012990;28;20021;-75
2022/10/03 05:53:58;;;;;;;3.70;2.05;;;;;;;7.25;84.60;102619.59;5013444;28;20025;-75
2022/10/03 05:56:44;;;;;;;4.15;2.08;;;;;;;7.26;84.67;102621.34;5007739;28;20393;-75
2022/10/03 05:59:47;;;;;;;4.70;2.13;;;;;;;7.26;85.02;102627.38;5014052;28;20080;-76
2022/10/03 06:02:45;;;;;;;3.03;1.58;;;;;;;7.26;84.59;102627.38;5012310;28;20569;-75
2022/10/03 06:05:34;;;;;;;2.90;1.70;;;;;;;7.29;85.13;102624.00;5009621;28;20389;-75
2022/10/03 06:08:43;;;;;;;4.10;1.30;;;;;;;7.31;85.10;102629.19;5015105;28;20076;-75
2022/10/03 06:11:30;;;;;;;5.10;1.70;;;;;;;7.31;85.04;102635.25;5014184;28;20108;-75
2022/10/03 06:14:15;;;;;;;3.88;1.63;;;;;;;7.33;85.24;102641.34;5013249;28;20041;-75
2022/10/03 06:17:14;;;;;;;4.72;1.80;;;;;;;7.35;85.36;102631.84;5014671;28;20394;-75
2022/10/03 06:19:55;;;;;;;7.28;2.40;;;;;;;7.39;86.05;102635.38;4989084;28;20405;-75
2022/10/03 06:22:44;;;;;;;5.95;2.13;;;;;;;7.44;86.25;102632.00;5008707;28;20026;-75
2022/10/03 06:25:24;;;;;;;4.28;2.25;;;;;;;7.49;85.71;102633.81;5012669;28;20469;-75
2022/10/03 06:28:45;;;;;;;5.75;2.58;;;;;;;7.52;86.07;102631.25;5016366;28;20018;-76
2022/10/03 06:31:49;;;;;;;4.00;2.17;;;;;;;7.57;86.02;102634.78;4911609;29;20064;-75
2022/10/03 06:34:49;;;;;;;4.97;2.55;;;;;;;7.60;86.37;102638.28;5007513;28;20064;-76
2022/10/03 06:37:28;;;;;;;4.63;2.42;;;;;;;7.63;86.67;102637.50;5012265;28;20034;-76
2022/10/03 06:39:59;;;;;;;4.45;2.47;;;;;;;7.66;86.92;102637.53;5011292;28;20030;-75
2022/10/03 06:42:53;;;;;;;7.38;2.60;;;;;;;7.71;87.19;102635.03;5017109;28;20439;-75
2022/10/03 06:45:53;;;;;;;5.10;2.38;;;;;;;7.80;87.75;102644.66;5011232;28;20054;-75
2022/10/03 06:48:39;;;;;;;7.80;2.70;;;;;;;7.86;87.89;102644.72;5012386;28;20029;-76
2022/10/03 06:51:30;;;;;;;6.75;3.22;;;;;;;7.93;88.21;102646.56;5009446;28;20499;-76
2022/10/03 06:54:51;;;;;;;6.80;3.43;;;;;;;8.03;88.33;102645.84;5009469;28;20116;-75
2022/10/03 06:57:44;;;;;;;10.98;3.80;;;;;;;8.12;88.37;102641.66;5010300;28;20022;-75
2022/10/03 07:00:14;;;;;;;7.93;3.70;;;;;;;8.17;88.72;102647.78;5011048;28;20040;-75
2022/10/03 07:03:12;;;;;;;9.13;3.85;;;;;;;8.26;88.72;102642.69;5007767;28;20113;-75
2022/10/03 07:05:55;;;;;;;7.80;3.67;;;;;;;8.31;88.80;102647.94;5005277;28;20432;-76
2022/10/03 07:08:45;;;;;;;9.40;3.78;;;;;;;8.39;88.90;102643.72;5009734;28;20084;-76
2022/10/03 07:11:43;;;;;;;8.30;3.83;;;;;;;8.46;89.00;102649.84;5011751;28;20071;-77
2022/10/03 07:14:27;;;;;;;7.43;3.80;;;;;;;8.54;89.25;102650.84;5012631;28;20025;-76
2022/10/03 07:17:03;;;;;;;9.48;3.65;;;;;;;8.61;89.61;102662.19;5011202;28;20354;-76
2022/10/03 07:19:52;;;;;;;7.25;3.83;;;;;;;8.70;89.62;102656.25;4992158;28;20053;-76
2022/10/03 07:22:35;;;;;;;7.07;3.75;;;;;;;8.77;89.72;102658.03;4991654;28;20113;-75
2022/10/03 07:25:41;;;;;;;7.68;3.53;;;;;;;8.84;89.96;102665.03;5008157;28;20042;-76
2022/10/03 07:28:31;;;;;;;8.88;3.67;;;;;;;8.91;90.00;102655.59;5003191;28;20032;-75
2022/10/03 07:31:20;;;;;;;9.25;3.72;;;;;;;8.97;90.07;102658.22;5009456;28;20033;-76
2022/10/03 07:33:55;;;;;;;8.10;3.90;;;;;;;9.04;90.18;102660.03;5015188;28;20025;-75
2022/10/03 07:39:55;;;;;;;6.60;2.97;;;;;;;9.19;89.99;102667.13;5008774;28;20677;-76
2022/10/03 07:42:32;;;;;;;6.10;3.35;;;;;;;9.27;90.15;102664.59;5003489;28;20030;-76
2022/10/03 07:45:33;;;;;;;7.65;3.50;;;;;;;9.35;90.46;102668.13;4992735;28;20053;-76
2022/10/03 07:48:41;;;;;;;8.45;3.58;;;;;;;9.42;90.40;102666.44;5008403;28;20445;-76
2022/10/03 07:51:18;;;;;;;7.93;3.35;;;;;;;9.51;90.43;102676.03;5005022;28;20057;-76
2022/10/03 07:54:23;;;;;;;13.68;3.22;;;;;;;9.59;90.70;102679.59;5006506;28;20030;-76
2022/10/03 07:57:26;;;;;;;8.68;3.60;;;;;;;9.67;90.46;102685.69;5008196;28;21369;-75
2022/10/03 08:00:05;;;;;;;7.18;3.80;;;;;;;9.74;90.65;102686.63;5010090;28;20026;-76
2022/10/03 08:02:46;;;;;;;9.95;3.63;;;;;;;9.81;90.36;102696.22;4988927;28;20079;-76
2022/10/03 08:05:48;;;;;;;8.93;3.42;;;;;;;9.87;90.28;102688.47;5005861;28;20052;-75
2022/10/03 08:08:38;;;;;;;;;;;;;;;9.96;88.86;102697.19;5006364;28;20104;-76
2022/10/03 08:11:09;;;;;;;7.03;3.13;;;;;;;10.01;89.55;102695.50;5007130;28;19913;-76
2022/10/03 08:14:12;;;;;;;6.80;3.47;;;;;;;10.09;89.96;102698.13;5008126;28;20481;-76
2022/10/03 08:16:53;;;;;;;7.05;3.15;;;;;;;10.16;89.68;102702.53;5008873;28;20350;-76
2022/10/03 08:19:39;;;;;;;7.45;3.20;;;;;;;10.22;89.35;102696.50;5008827;28;20024;-77
2022/10/03 08:22:13;;;;;;;8.88;3.22;;;;;;;10.28;89.79;102694.78;5004821;28;20065;-76
2022/10/03 08:25:06;;;;;;;6.90;3.50;;;;;;;10.35;90.39;102695.69;5002786;28;20037;-75
2022/10/03 08:27:50;;;;;;;7.13;3.35;;;;;;;10.44;90.50;102685.34;5000925;28;20559;-75
2022/10/03 08:30:25;;;;;;;7.38;3.63;;;;;;;10.53;90.70;102689.72;5003884;28;20404;-75
2022/10/03 08:33:19;;;;;;;6.80;4.00;;;;;;;10.63;91.11;102685.41;5003119;28;20049;-75
2022/10/03 08:36:15;;;;;;;8.63;3.67;;;;;;;10.72;90.98;102681.97;5005187;28;20030;-76
2022/10/03 08:38:53;;;;;;;9.05;3.33;;;;;;;10.76;90.46;102697.59;5004999;28;20079;-76
2022/10/03 08:41:37;;;;;;;8.75;3.60;;;;;;;10.80;90.11;102687.22;5006629;28;20057;-75
2022/10/03 08:44:31;;;;;;;6.57;3.67;;;;;;;10.87;90.49;102694.19;5006273;28;20562;-76
2022/10/03 08:47:33;;;;;;;10.93;3.75;;;;;;;10.96;90.18;102688.13;5006127;28;20033;-75
2022/10/03 08:50:26;;;;;;;9.00;3.50;;;;;;;11.03;89.94;102695.06;5004282;28;20084;-75
2022/10/03 08:53:01;;;;;;;7.63;3.45;;;;;;;11.12;89.90;102694.22;5006688;28;20535;-75
2022/10/03 08:55:54;;;;;;;7.80;3.97;;;;;;;11.19;90.04;102696.00;5007561;28;20093;-75
2022/10/03 08:58:26;;;;;;;7.22;3.30;;;;;;;11.27;89.40;102688.19;5008306;28;20042;-76
2022/10/03 09:01:17;;;;;;;8.27;3.60;;;;;;;11.33;89.85;102689.06;5006403;28;20045;-75
2022/10/03 09:04:01;;;;;;;8.00;3.50;;;;;;;11.43;89.13;102699.50;5007147;28;20040;-75
2022/10/03 09:07:00;;;;;;;6.88;3.42;;;;;;;11.48;88.17;102692.53;5009626;28;20025;-76
2022/10/03 09:09:40;;;;;;;7.15;2.80;;;;;;;11.56;88.12;102690.81;5009012;28;20026;-75
2022/10/03 09:12:33;;;;;;;5.03;2.30;;;;;;;11.64;87.63;102702.09;5009407;28;20769;-75
2022/10/03 09:15:17;;;;;;;6.90;2.70;;;;;;;11.74;87.72;102696.88;5009496;28;20068;-75
2022/10/03 09:18:09;;;;;;;5.28;2.55;;;;;;;11.88;87.18;102689.03;4987372;28;20033;-75
2022/10/03 09:21:12;;;;;;;8.10;2.80;;;;;;;11.98;86.85;102694.28;5008123;28;20033;-75
2022/10/03 09:23:49;;;;;;;5.70;3.00;;;;;;;12.09;86.63;102693.41;5007907;28;20430;-75
2022/10/03 09:26:51;;;;;;;7.22;2.30;;;;;;;12.20;86.95;102688.16;5008089;28;20040;-75
2022/10/03 09:29:36;;;;;;;5.20;2.10;;;;;;;12.27;85.34;102688.13;5007593;28;20037;-76
2022/10/03 09:32:29;;;;;;;7.57;2.40;;;;;;;12.37;85.06;102682.88;5008636;28;20512;-76
2022/10/03 09:34:57;;;;;;;5.60;2.50;;;;;;;12.45;84.74;102678.50;5007020;28;20040;-76
2022/10/03 09:37:57;;;;;;;5.63;2.30;;;;;;;12.54;84.28;102681.06;5006238;28;20048;-76
2022/10/03 09:40:31;;;;;;;6.18;2.22;;;;;;;12.62;82.72;102675.78;5006565;28;20096;-75
2022/10/03 09:43:34;;;;;;;6.35;2.50;;;;;;;12.70;83.18;102674.03;5006174;28;20034;-76
2022/10/03 09:46:31;;;;;;;3.83;2.03;;;;;;;12.79;82.74;102673.13;5008362;28;20053;-75
2022/10/03 09:49:06;;;;;;;7.13;1.67;;;;;;;12.86;81.41;102676.56;5008180;28;20018;-75
2022/10/03 09:51:46;;;;;;;5.18;2.20;;;;;;;12.90;81.47;102671.28;5008209;28;20025;-76
2022/10/03 09:54:42;;;;;;;7.88;2.17;;;;;;;12.98;81.58;102675.63;5006998;28;20037;-76
2022/10/03 09:57:37;;;;;;;9.45;2.38;;;;;;;13.06;81.85;102661.59;5007751;28;20057;-76
2022/10/03 10:00:09;;;;;;;3.97;2.10;;;;;;;13.11;81.46;102664.19;4990756;28;20137;-75
2022/10/03 10:02:52;;;;;;;6.68;2.75;;;;;;;13.19;82.49;102661.53;5006592;28;20155;-76
2022/10/03 10:05:50;;;;;;;8.43;2.20;;;;;;;13.25;80.14;102660.63;5007833;28;20037;-76
2022/10/03 10:08:28;;;;;;;4.95;1.55;;;;;;;13.28;78.51;102660.59;4973932;28;20544;-76
2022/10/03 10:11:17;;;;;;;5.32;1.95;;;;;;;13.33;79.12;102658.78;5009925;28;20378;-76
2022/10/03 10:14:06;;;;;;;3.65;1.52;;;;;;;13.36;78.69;102662.28;4990487;28;20156;-76
2022/10/03 10:16:40;;;;;;;5.78;1.52;;;;;;;13.40;78.42;102657.03;5007297;28;20040;-76
2022/10/03 10:19:18;;;;;;;4.40;1.30;;;;;;;13.43;77.96;102657.00;5008222;28;20532;-76
2022/10/03 10:22:09;;;;;;;4.07;1.88;;;;;;;13.47;77.54;102656.09;5007145;28;20029;-76
2022/10/03 10:25:00;;;;;;;4.70;1.60;;;;;;;13.52;77.93;102659.56;5002730;28;20069;-76
2022/10/03 10:28:03;;;;;;;4.82;1.60;;;;;;;13.58;78.79;102662.09;5005832;28;20062;-75
2022/10/03 10:31:20;;;;;;;5.55;1.33;;;;;;;13.61;77.55;102659.47;5005708;28;20120;-75
2022/10/03 10:34:27;;;;;;;4.65;1.40;;;;;;;13.64;78.13;102658.59;4995734;28;20041;-75
2022/10/03 10:37:23;;;;;;;4.97;1.42;;;;;;;13.66;76.35;102652.44;5007863;28;20121;-75
2022/10/03 10:40:20;;;;;;;4.53;1.55;;;;;;;13.68;75.75;102652.41;5008710;28;20030;-75
2022/10/03 10:43:23;;;;;;;3.55;1.52;;;;;;;13.73;77.11;102658.47;5007225;28;20036;-76
2022/10/03 10:45:57;;;;;;;4.63;1.45;;;;;;;13.78;74.19;102661.03;5006844;28;20042;-75
2022/10/03 10:48:50;;;;;;;5.70;1.63;;;;;;;13.83;74.95;102648.78;5006474;28;20412;-75
2022/10/03 10:52:04;;;;;;;5.95;1.65;;;;;;;13.91;76.21;102653.94;5005615;28;20033;-75
2022/10/03 10:54:38;;;;;;;5.00;1.25;;;;;;;13.97;74.44;102651.28;5005688;28;20037;-76
2022/10/03 10:57:39;;;;;;;4.13;1.10;;;;;;;14.06;74.04;102655.53;5007345;28;20034;-76
2022/10/03 11:00:41;;;;;;;6.57;1.40;;;;;;;14.11;73.22;102657.22;5006563;28;20026;-75
2022/10/03 11:03:51;;;;;;;5.15;1.30;;;;;;;14.11;72.89;102649.38;5007959;28;20072;-75
2022/10/03 11:06:52;;;;;;;4.47;1.40;;;;;;;14.17;73.47;102644.94;4991024;28;20065;-75
2022/10/03 11:09:33;;;;;;;7.20;1.38;;;;;;;14.21;71.46;102641.38;5006518;28;21348;-75
2022/10/03 11:12:23;;;;;;;6.13;1.23;;;;;;;14.27;72.59;102650.03;5006687;28;20053;-75
2022/10/03 11:15:00;;;;;;;5.57;1.17;;;;;;;14.31;70.46;102645.63;5005507;28;20033;-74
2022/10/03 11:17:43;;;;;;;3.13;1.13;;;;;;;14.38;71.89;102647.28;5005842;28;20511;-75
2022/10/03 11:20:35;;;;;;;6.45;1.45;;;;;;;14.48;72.26;102641.94;5005096;28;20041;-75
2022/10/03 11:23:36;;;;;;;5.03;1.58;;;;;;;14.54;71.81;102647.97;5005057;28;20037;-75
2022/10/03 11:26:40;;;;;;;6.88;1.50;;;;;;;14.61;71.04;102646.13;5006083;28;20096;-75
2022/10/03 11:29:55;;;;;;;5.65;1.52;;;;;;;14.67;70.09;102653.91;5005663;28;20465;-75
2022/10/03 11:32:29;;;;;;;4.68;1.60;;;;;;;14.74;68.69;102632.88;5005126;28;20042;-75
2022/10/03 11:35:19;;;;;;;6.53;1.98;;;;;;;14.80;69.03;102631.03;4987603;28;20480;-76
2022/10/03 11:38:05;;;;;;;4.65;1.00;;;;;;;14.89;68.82;102637.88;5005402;28;20091;-76
2022/10/03 11:40:58;;;;;;;4.15;1.25;;;;;;;14.93;69.15;102639.56;5006689;28;20192;-75
2022/10/03 11:43:54;;;;;;;5.20;1.30;;;;;;;14.98;69.48;102643.00;5005056;28;20121;-75
2022/10/03 11:46:38;;;;;;;5.45;1.25;;;;;;;14.96;68.05;102636.91;5004480;28;20514;-75
2022/10/03 11:49:48;;;;;;;4.50;1.10;;;;;;;14.97;70.11;102636.03;5005368;28;22000;-74
2022/10/03 11:52:36;;;;;;;4.60;1.20;;;;;;;15.03;70.01;102649.00;5005944;28;20051;-75
2022/10/03 11:55:17;;;;;;;5.82;1.20;;;;;;;15.06;67.49;102645.50;5005800;28;20068;-75
2022/10/03 11:57:48;;;;;;;2.92;1.00;;;;;;;15.11;66.56;102642.81;5007631;28;20041;-75
2022/10/03 12:00:18;;;;;;;4.65;1.10;;;;;;;15.17;66.35;102642.72;5005009;28;20118;-75
2022/10/03 12:03:12;;;;;;;4.72;1.00;;;;;;;15.28;67.97;102645.16;5003970;28;20179;-76
2022/10/03 12:05:47;;;;;;;4.15;1.00;;;;;;;15.41;67.31;102636.19;5005038;28;20117;-76
2022/10/03 12:11:20;;;;;;;4.25;1.35;;;;;;;15.61;66.40;102633.19;5004862;28;20546;-76
2022/10/03 12:14:08;;;;;;;2.72;0.85;;;;;;;15.68;64.97;102638.34;5006435;28;20068;-76
2022/10/03 12:16:56;;;;;;;5.82;0.95;;;;;;;15.74;66.61;102627.72;5006468;28;20196;-76
2022/10/03 12:19:46;;;;;;;3.75;0.90;;;;;;;15.80;66.86;102632.88;4987513;28;20029;-75
2022/10/03 12:22:41;;;;;;;3.22;0.90;;;;;;;15.83;66.28;102627.56;5003591;28;20033;-75
2022/10/03 12:25:20;;;;;;;7.03;0.90;;;;;;;15.85;65.15;102619.66;5005997;28;20037;-76
2022/10/03 12:28:11;;;;;;;5.60;1.20;;;;;;;15.86;63.60;102626.66;5004155;28;20029;-75
2022/10/03 12:30:46;;;;;;;4.70;1.00;;;;;;;15.87;62.90;102618.78;4990921;28;20483;-75
2022/10/03 12:33:35;;;;;;;5.20;0.90;;;;;;;15.88;64.26;102623.13;5010009;28;20026;-75
2022/10/03 12:36:14;;;;;;;2.80;0.95;;;;;;;15.87;63.59;102621.41;5008713;28;20083;-76
2022/10/03 12:38:45;;;;;;;6.15;1.10;;;;;;;15.88;63.89;102617.88;5009749;28;20540;-75
2022/10/03 12:41:35;;;;;;;4.13;0.90;;;;;;;15.89;64.64;102616.09;5009578;28;20492;-76
2022/10/03 12:44:27;;;;;;;4.97;0.95;;;;;;;15.86;64.17;102619.66;5010548;28;20041;-76
2022/10/03 12:47:28;;;;;;;3.60;0.93;;;;;;;15.82;64.44;102610.09;4993245;28;20065;-76
2022/10/03 12:50:14;;;;;;;3.90;0.80;;;;;;;15.78;61.41;102609.28;5010330;28;20037;-75
2022/10/03 12:53:04;;;;;;;2.53;0.70;;;;;;;15.78;62.03;102611.03;5008052;28;20143;-76
2022/10/03 12:55:33;;;;;;;2.63;0.90;;;;;;;15.80;64.12;102606.63;5010180;28;20144;-76
2022/10/03 12:58:24;;;;;;;3.55;0.98;;;;;;;15.83;65.36;102614.44;5008855;28;20045;-76
2022/10/03 13:01:17;;;;;;;3.92;1.00;;;;;;;15.86;64.84;102610.91;5008789;28;20109;-75
2022/10/03 13:03:52;;;;;;;6.35;0.90;;;;;;;15.88;65.23;102612.63;5009065;28;20036;-76
2022/10/03 13:06:40;;;;;;;4.90;1.00;;;;;;;15.94;64.73;102611.63;5009503;28;20527;-76
2022/10/03 13:09:24;;;;;;;4.20;0.98;;;;;;;16.02;64.17;102614.13;5009902;28;20050;-76
2022/10/03 13:11:55;;;;;;;3.25;0.82;;;;;;;16.11;62.91;102605.19;5010964;28;20033;-77
2022/10/03 13:14:43;;;;;;;6.47;1.00;;;;;;;16.24;62.97;102602.25;5009468;28;20072;-76